Rio Cuarto, Rio Cuarto Las Higueras Airport (SAOC)

NameRio Cuarto Las Higueras Airport
CityRio Cuarto
CountryArgentina
ICAOSAOC
IATARCU
Altitude421 m
CoordinatesGoogle Map
Live Air TrafficLiveATC.net
METARSAOC 191300Z 36019G29KT CAVOK 21/03 Q1014
2018-11-19 13:00:00 Wind: North (360°) 9.77 m/s - Visibility: > 10000 m - Weather: CAVOK - Temperature: 21 °C - Dew point: 3 °C - Humidity: 30.6% - Pressure: 1014 hPa
Statistics

The table below shows the detailed information of all flights to/from Rio Cuarto, Rio Cuarto Las Higueras Airport (SAOC).